createdAt,value
2022-11-08T00:02:03.605Z,100216.41
2022-11-08T00:05:24.699Z,100213.47
2022-11-08T00:08:44.825Z,100209.00
2022-11-08T00:12:05.257Z,100222.06
2022-11-08T00:15:09.623Z,100209.84
2022-11-08T00:18:11.325Z,100207.31
2022-11-08T00:21:12.938Z,100213.47
2022-11-08T00:24:14.591Z,100208.78
2022-11-08T00:27:18.458Z,100195.44
2022-11-08T00:30:21.548Z,100193.69
2022-11-08T00:33:23.385Z,100204.22
2022-11-08T00:36:25.045Z,100191.66
2022-11-08T00:39:26.872Z,100185.72
2022-11-08T00:42:28.586Z,100180.53
2022-11-08T00:45:31.587Z,100187.69
2022-11-08T00:48:33.169Z,100181.19
2022-11-08T00:51:35.176Z,100170.59
2022-11-08T00:54:36.828Z,100172.81
2022-11-08T00:57:53.971Z,100177.75
2022-11-08T01:01:08.255Z,100175.78
2022-11-08T01:04:11.411Z,100175.53
2022-11-08T01:07:13.027Z,100172.75
2022-11-08T01:10:14.748Z,100168.94
2022-11-08T01:13:17.290Z,100158.13
2022-11-08T01:16:22.873Z,100155.06
2022-11-08T01:19:24.646Z,100160.69
2022-11-08T01:22:26.328Z,100163.53
2022-11-08T01:25:27.989Z,100162.16
2022-11-08T01:28:29.665Z,100155.88
2022-11-08T01:31:32.706Z,100153.97
2022-11-08T01:34:34.646Z,100148.38
2022-11-08T01:37:36.325Z,100135.75
2022-11-08T01:40:42.929Z,100133.53
2022-11-08T01:43:45.654Z,100129.25
2022-11-08T01:46:48.829Z,100114.47
2022-11-08T01:49:51.792Z,100117.91
2022-11-08T01:52:55.234Z,100116.72
2022-11-08T01:55:57.676Z,100122.16
2022-11-08T01:59:02.269Z,100113.06
2022-11-08T02:02:07.621Z,100109.59
2022-11-08T02:05:24.844Z,100106.72
2022-11-08T02:08:32.541Z,100094.22
2022-11-08T02:11:34.798Z,100098.81
2022-11-08T02:14:36.907Z,100099.03
2022-11-08T02:17:40.029Z,100096.25
2022-11-08T02:20:48.756Z,100091.69
2022-11-08T02:23:54.332Z,100105.75
2022-11-08T02:26:57.545Z,100110.91
2022-11-08T02:29:59.200Z,100100.75
2022-11-08T02:33:01.160Z,100111.19
2022-11-08T02:36:04.437Z,100108.47
2022-11-08T02:39:07.406Z,100094.47
2022-11-08T02:42:13.089Z,100097.06
2022-11-08T02:45:14.759Z,100095.81
2022-11-08T02:48:17.304Z,100095.59
2022-11-08T02:51:19.190Z,100097.03
2022-11-08T02:54:22.283Z,100098.16
2022-11-08T02:57:23.951Z,100095.75
2022-11-08T03:00:25.670Z,100076.75
2022-11-08T03:03:27.268Z,100088.38
2022-11-08T03:06:28.979Z,100078.28
2022-11-08T03:09:31.928Z,100080.25
2022-11-08T03:12:33.664Z,100088.03
2022-11-08T03:15:35.275Z,100083.44
2022-11-08T03:18:36.914Z,100074.31
2022-11-08T03:21:38.696Z,100069.31
2022-11-08T03:24:41.842Z,100076.53
2022-11-08T03:27:43.409Z,100078.78
2022-11-08T03:30:45.110Z,100073.19
2022-11-08T03:33:46.724Z,100074.66
2022-11-08T03:36:48.612Z,100068.09
2022-11-08T03:39:51.610Z,100063.41
2022-11-08T03:42:55.224Z,100071.19
2022-11-08T03:45:56.880Z,100060.31
2022-11-08T03:48:58.499Z,100055.13
2022-11-08T03:52:00.121Z,100050.84
2022-11-08T03:55:03.091Z,100046.81
2022-11-08T03:58:04.699Z,100027.94
2022-11-08T04:01:06.766Z,100025.22
2022-11-08T04:04:08.675Z,100013.75
2022-11-08T04:07:10.248Z,100010.03
2022-11-08T04:10:13.792Z,100001.88
2022-11-08T04:13:43.342Z,100001.94
2022-11-08T04:16:45.143Z,99999.63
2022-11-08T04:20:05.630Z,99994.06
2022-11-08T04:23:07.269Z,99996.72
2022-11-08T04:26:11.920Z,99991.75
2022-11-08T04:29:13.618Z,99991.91
2022-11-08T04:32:15.258Z,99996.06
2022-11-08T04:35:17.094Z,99989.50
2022-11-08T04:38:19.883Z,99980.47
2022-11-08T04:41:24.879Z,99985.97
2022-11-08T04:44:26.496Z,99986.34
2022-11-08T04:47:28.192Z,99979.28
2022-11-08T04:50:29.806Z,99988.22
2022-11-08T04:53:32.165Z,99983.41
2022-11-08T04:56:35.272Z,99985.78
2022-11-08T04:59:36.961Z,99977.47
2022-11-08T05:02:38.612Z,99979.59
2022-11-08T05:05:40.379Z,99982.38
2022-11-08T05:08:42.557Z,99988.00
2022-11-08T05:11:45.515Z,99988.16
2022-11-08T05:14:47.387Z,99990.19
2022-11-08T05:17:48.979Z,99996.59
2022-11-08T05:21:12.178Z,99996.31
2022-11-08T05:24:16.402Z,100010.88
2022-11-08T05:27:19.390Z,100001.84
2022-11-08T05:30:21.029Z,100009.00
2022-11-08T05:33:23.324Z,100012.31
2022-11-08T05:36:24.953Z,100014.44
2022-11-08T05:39:30.956Z,100013.22
2022-11-08T05:42:35.102Z,99996.06
2022-11-08T05:45:36.859Z,99992.59
2022-11-08T05:48:38.771Z,99979.53
2022-11-08T05:51:40.395Z,99973.56
2022-11-08T05:54:42.049Z,99977.44
2022-11-08T05:57:44.988Z,99965.78
2022-11-08T06:00:46.619Z,99953.75
2022-11-08T06:03:48.758Z,99954.19
2022-11-08T06:06:50.748Z,99933.22
2022-11-08T06:09:52.371Z,99933.56
2022-11-08T06:12:58.912Z,99923.81
2022-11-08T06:16:02.052Z,99922.44
2022-11-08T06:19:03.688Z,99923.81
2022-11-08T06:22:05.525Z,99916.97
2022-11-08T06:25:07.747Z,99912.41
2022-11-08T06:28:10.747Z,99914.34
2022-11-08T06:31:12.360Z,99936.75
2022-11-08T06:34:14.036Z,99935.16
2022-11-08T06:37:16.222Z,99934.16
2022-11-08T06:40:17.877Z,99947.44
2022-11-08T06:43:21.119Z,99948.06
2022-11-08T06:46:23.346Z,99948.53
2022-11-08T06:49:25.529Z,99956.63
2022-11-08T06:52:27.225Z,99967.44
2022-11-08T06:55:29.744Z,99974.25
2022-11-08T06:58:32.762Z,99976.66
2022-11-08T07:01:34.836Z,99973.63
2022-11-08T07:04:36.802Z,99974.94
2022-11-08T07:07:38.758Z,99970.16
2022-11-08T07:10:40.671Z,99973.31
2022-11-08T07:13:43.682Z,99984.28
2022-11-08T07:16:45.370Z,99989.41
2022-11-08T07:19:46.991Z,99987.25
2022-11-08T07:22:48.625Z,99978.16
2022-11-08T07:25:50.248Z,99974.91
2022-11-08T07:28:53.232Z,99983.69
2022-11-08T07:31:54.888Z,99979.91
2022-11-08T07:34:56.466Z,99970.31
2022-11-08T07:37:58.243Z,99966.38
2022-11-08T07:41:01.425Z,99976.66
2022-11-08T07:44:04.474Z,99978.13
2022-11-08T07:47:06.176Z,99969.91
2022-11-08T07:50:08.811Z,99979.72
2022-11-08T07:53:10.906Z,99973.00
2022-11-08T07:56:12.511Z,99970.41
2022-11-08T07:59:16.186Z,99977.44
2022-11-08T08:02:18.061Z,99970.13
2022-11-08T08:05:19.762Z,99962.66
2022-11-08T08:08:21.814Z,99962.84
2022-11-08T08:11:23.530Z,99972.03
2022-11-08T08:14:26.547Z,99980.72
2022-11-08T08:17:28.182Z,99989.44
2022-11-08T08:20:30.128Z,100000.16
2022-11-08T08:23:31.816Z,100005.31
2022-11-08T08:26:33.468Z,99996.66
2022-11-08T08:29:36.502Z,100002.13
2022-11-08T08:32:38.191Z,99999.44
2022-11-08T08:35:42.926Z,99997.44
2022-11-08T08:38:44.953Z,100003.38
2022-11-08T08:41:46.606Z,100009.81
2022-11-08T08:44:49.704Z,100014.34
2022-11-08T08:47:52.523Z,100014.78
2022-11-08T08:50:54.534Z,100023.63
2022-11-08T08:53:56.183Z,100017.19
2022-11-08T08:56:57.822Z,100010.63
2022-11-08T09:03:22.638Z,100021.91
2022-11-08T09:06:24.462Z,100019.81
2022-11-08T09:09:26.186Z,100022.06
2022-11-08T09:12:28.291Z,100016.28
2022-11-08T09:15:31.283Z,100014.72
2022-11-08T09:18:33.170Z,100011.72
2022-11-08T09:21:34.942Z,100017.13
2022-11-08T09:24:36.631Z,100021.31
2022-11-08T09:27:38.277Z,100028.03
2022-11-08T09:30:41.334Z,100024.22
2022-11-08T09:33:43.043Z,100013.00
2022-11-08T09:36:44.754Z,100019.81
2022-11-08T09:39:46.453Z,100007.69
2022-11-08T09:43:01.200Z,100008.94
2022-11-08T09:46:04.358Z,100013.97
2022-11-08T09:49:10.685Z,100006.13
2022-11-08T09:52:20.607Z,99999.41
2022-11-08T09:55:28.565Z,100005.31
2022-11-08T09:58:35.339Z,100004.06
2022-11-08T10:01:39.939Z,100008.66
2022-11-08T10:04:41.702Z,100005.28
2022-11-08T10:07:50.581Z,100010.13
2022-11-08T10:11:06.451Z,100003.22
2022-11-08T10:14:26.522Z,100000.63
2022-11-08T10:17:46.216Z,100002.97
2022-11-08T10:21:01.789Z,100001.63
2022-11-08T10:24:09.468Z,99999.34
2022-11-08T10:27:16.234Z,99986.47
2022-11-08T10:30:20.526Z,99988.88
2022-11-08T10:33:29.270Z,99976.09
2022-11-08T10:36:37.278Z,99980.69
2022-11-08T10:39:44.143Z,99983.31
2022-11-08T10:42:47.637Z,99981.34
2022-11-08T10:45:49.312Z,99987.03
2022-11-08T10:48:52.297Z,99979.22
2022-11-08T10:51:55.611Z,100001.50
2022-11-08T10:54:58.286Z,99990.03
2022-11-08T10:58:00.420Z,99988.94
2022-11-08T11:01:05.342Z,99994.66
2022-11-08T11:04:26.205Z,99993.09
2022-11-08T11:07:32.410Z,99985.03
2022-11-08T11:10:35.909Z,99984.75
2022-11-08T11:13:37.704Z,99982.94
2022-11-08T11:16:53.048Z,99979.63
2022-11-08T11:19:57.414Z,99974.16
2022-11-08T11:23:00.466Z,99963.41
2022-11-08T11:26:02.515Z,99969.56
2022-11-08T11:29:22.189Z,99963.44
2022-11-08T11:32:32.346Z,99971.38
2022-11-08T11:35:41.182Z,99965.78
2022-11-08T11:38:50.704Z,99951.44
2022-11-08T11:41:58.383Z,99947.94
2022-11-08T11:45:09.655Z,99952.91
2022-11-08T11:48:16.562Z,99943.88
2022-11-08T11:51:19.837Z,99937.72
2022-11-08T11:54:27.309Z,99945.38
2022-11-08T11:57:38.981Z,99951.53
2022-11-08T12:00:49.472Z,99945.00
2022-11-08T12:04:10.457Z,99941.31
2022-11-08T12:07:19.174Z,99936.59
2022-11-08T12:10:29.563Z,99925.81
2022-11-08T12:13:42.089Z,99931.13
2022-11-08T12:16:54.278Z,99931.66
2022-11-08T12:20:07.174Z,99928.34
2022-11-08T12:23:28.503Z,99933.41
2022-11-08T12:26:35.269Z,99930.03
2022-11-08T12:29:45.276Z,99922.09
2022-11-08T12:33:02.760Z,99916.06
2022-11-08T12:36:15.831Z,99911.13
2022-11-08T12:39:29.264Z,99908.03
2022-11-08T12:42:47.616Z,99905.38
2022-11-08T12:45:57.168Z,99897.78
2022-11-08T12:49:21.814Z,99893.94
2022-11-08T12:52:47.881Z,99888.84
2022-11-08T12:55:54.574Z,99885.50
2022-11-08T12:58:56.579Z,99876.03
2022-11-08T13:02:00.950Z,99871.91
2022-11-08T13:05:10.472Z,99874.19
2022-11-08T13:08:17.649Z,99875.63
2022-11-08T13:11:27.044Z,99878.88
2022-11-08T13:14:29.979Z,99877.88
2022-11-08T13:17:31.790Z,99869.94
2022-11-08T13:20:41.602Z,99874.47
2022-11-08T13:23:43.268Z,99863.56
2022-11-08T13:26:46.487Z,99857.28
2022-11-08T13:29:48.210Z,99852.13
2022-11-08T13:32:55.264Z,99855.25
2022-11-08T13:36:09.741Z,99860.38
2022-11-08T13:39:47.258Z,99863.31
2022-11-08T13:43:20.680Z,99864.50
2022-11-08T13:46:48.032Z,99865.91
2022-11-08T13:49:49.808Z,99868.94
2022-11-08T13:53:03.011Z,99863.47
2022-11-08T13:56:23.071Z,99859.50
2022-11-08T13:59:58.869Z,99859.63
2022-11-08T14:03:00.550Z,99862.88
2022-11-08T14:06:13.889Z,99879.78
2022-11-08T14:09:26.983Z,99863.69
2022-11-08T14:12:37.157Z,99852.63
2022-11-08T14:15:46.657Z,99862.19
2022-11-08T14:18:48.551Z,99851.69
2022-11-08T14:21:52.777Z,99844.25
2022-11-08T14:25:00.631Z,99839.75
2022-11-08T14:28:03.912Z,99835.41
2022-11-08T14:31:21.687Z,99824.34
2022-11-08T14:34:27.891Z,99837.50
2022-11-08T14:37:29.596Z,99835.56
2022-11-08T14:40:31.433Z,99837.72
2022-11-08T14:43:41.325Z,99839.38
2022-11-08T14:46:45.252Z,99839.47
2022-11-08T14:49:47.879Z,99835.88
2022-11-08T14:52:50.161Z,99842.44
2022-11-08T14:56:01.303Z,99840.47
2022-11-08T14:59:06.545Z,99849.56
2022-11-08T15:02:09.712Z,99834.16
2022-11-08T15:05:27.088Z,99840.06
2022-11-08T15:08:31.163Z,99842.00
2022-11-08T15:11:35.599Z,99825.59
2022-11-08T15:14:48.538Z,99819.38
2022-11-08T15:18:11.756Z,99818.66
2022-11-08T15:21:26.187Z,99816.53
2022-11-08T15:24:35.393Z,99810.22
2022-11-08T15:27:37.682Z,99815.53
2022-11-08T15:30:42.509Z,99815.13
2022-11-08T15:33:45.723Z,99811.75
2022-11-08T15:36:47.965Z,99811.50
2022-11-08T15:39:51.111Z,99815.22
2022-11-08T15:42:53.131Z,99814.69
2022-11-08T15:45:54.819Z,99815.97
2022-11-08T15:48:59.248Z,99816.09
2022-11-08T15:52:01.673Z,99808.50
2022-11-08T15:55:03.334Z,99808.72
2022-11-08T15:58:10.608Z,99802.31
2022-11-08T16:01:18.970Z,99819.78
2022-11-08T16:04:22.531Z,99810.25
2022-11-08T16:07:24.366Z,99806.25
2022-11-08T16:10:31.131Z,99809.19
2022-11-08T16:13:37.131Z,99809.09
2022-11-08T16:16:38.852Z,99806.34
2022-11-08T16:19:41.865Z,99799.78
2022-11-08T16:22:43.741Z,99805.22
2022-11-08T16:25:47.579Z,99803.25
2022-11-08T16:28:49.192Z,99792.03
2022-11-08T16:31:51.691Z,99789.94
2022-11-08T16:34:54.887Z,99784.25
2022-11-08T16:37:56.724Z,99784.59
2022-11-08T16:40:58.415Z,99777.56
2022-11-08T16:44:00.269Z,99782.88
2022-11-08T16:47:01.942Z,99782.56
2022-11-08T16:50:07.605Z,99776.16
2022-11-08T16:53:15.307Z,99774.13
2022-11-08T16:56:17.412Z,99783.00
2022-11-08T16:59:19.064Z,99784.78
2022-11-08T17:02:24.764Z,99793.94
2022-11-08T17:05:27.867Z,99794.84
2022-11-08T17:08:29.535Z,99793.53
2022-11-08T17:11:31.191Z,99794.09
2022-11-08T17:14:32.807Z,99797.44
2022-11-08T17:17:34.536Z,99795.78
2022-11-08T17:20:38.118Z,99801.75
2022-11-08T17:23:40.041Z,99802.09
2022-11-08T17:26:41.789Z,99799.53
2022-11-08T17:29:43.433Z,99809.19
2022-11-08T17:32:45.341Z,99810.25
2022-11-08T17:35:48.305Z,99819.56
2022-11-08T17:38:49.951Z,99811.06
2022-11-08T17:41:51.679Z,99806.25
2022-11-08T17:44:56.136Z,99818.94
2022-11-08T17:47:57.770Z,99810.56
2022-11-08T17:51:01.094Z,99810.16
2022-11-08T17:54:02.800Z,99798.25
2022-11-08T17:57:04.421Z,99806.22
2022-11-08T18:00:10.883Z,99795.91
2022-11-08T18:03:15.803Z,99795.16
2022-11-08T18:06:19.182Z,99798.59
2022-11-08T18:09:21.045Z,99794.59
2022-11-08T18:12:22.841Z,99791.97
2022-11-08T18:15:24.513Z,99796.09
2022-11-08T18:18:26.170Z,99797.09
2022-11-08T18:21:29.242Z,99815.03
2022-11-08T18:24:30.906Z,99808.25
2022-11-08T18:27:32.558Z,99805.97
2022-11-08T18:30:34.255Z,99805.88
2022-11-08T18:33:36.657Z,99818.88
2022-11-08T18:36:39.936Z,99817.22
2022-11-08T18:39:41.612Z,99818.09
2022-11-08T18:42:43.336Z,99815.56
2022-11-08T18:45:45.002Z,99820.31
2022-11-08T18:48:47.464Z,99822.47
2022-11-08T18:51:52.140Z,99813.44
2022-11-08T18:54:54.527Z,99821.63
2022-11-08T18:57:56.152Z,99817.63
2022-11-08T19:00:57.916Z,99812.09
2022-11-08T19:03:59.626Z,99814.94
2022-11-08T19:07:02.663Z,99811.72
2022-11-08T19:10:05.046Z,99803.50
2022-11-08T19:13:06.682Z,99808.09
2022-11-08T19:16:12.881Z,99802.56
2022-11-08T19:19:14.491Z,99795.88
2022-11-08T19:22:17.609Z,99803.69
2022-11-08T19:25:19.260Z,99796.47
2022-11-08T19:28:20.913Z,99797.97
2022-11-08T19:31:24.493Z,99801.19
2022-11-08T19:34:26.400Z,99808.53
2022-11-08T19:37:29.334Z,99823.31
2022-11-08T19:40:32.592Z,99824.09
2022-11-08T19:43:35.051Z,99828.00
2022-11-08T19:46:38.938Z,99824.63
2022-11-08T19:49:40.620Z,99810.81
2022-11-08T19:52:43.598Z,99825.41
2022-11-08T19:55:45.265Z,99813.56
2022-11-08T19:58:47.499Z,99807.13
2022-11-08T20:01:49.291Z,99794.09
2022-11-08T20:04:51.178Z,99801.31
2022-11-08T20:07:54.209Z,99806.34
2022-11-08T20:10:55.889Z,99810.00
2022-11-08T20:13:59.936Z,99804.28
2022-11-08T20:17:01.655Z,99808.69
2022-11-08T20:20:04.811Z,99811.63
2022-11-08T20:23:08.164Z,99806.84
2022-11-08T20:26:13.101Z,99820.31
2022-11-08T20:29:14.906Z,99817.16
2022-11-08T20:32:16.532Z,99814.66
2022-11-08T20:35:22.839Z,99815.19
2022-11-08T20:38:26.212Z,99809.91
2022-11-08T20:41:27.887Z,99807.78
2022-11-08T20:44:29.525Z,99819.38
2022-11-08T20:47:31.192Z,99812.56
2022-11-08T20:50:34.232Z,99809.41
2022-11-08T20:53:37.613Z,99815.22
2022-11-08T20:56:39.304Z,99822.75
2022-11-08T20:59:41.012Z,99824.88
2022-11-08T21:02:42.741Z,99827.94
2022-11-08T21:05:50.035Z,99821.72
2022-11-08T21:09:09.938Z,99834.06
2022-11-08T21:12:15.445Z,99855.75
2022-11-08T21:15:17.311Z,99842.19
2022-11-08T21:18:20.557Z,99841.47
2022-11-08T21:21:22.398Z,99856.13
2022-11-08T21:24:25.407Z,99856.25
2022-11-08T21:27:29.789Z,99847.38
2022-11-08T21:30:31.831Z,99850.13
2022-11-08T21:33:33.914Z,99862.25
2022-11-08T21:36:35.875Z,99871.13
2022-11-08T21:39:39.074Z,99864.19
2022-11-08T21:42:44.747Z,99869.25
2022-11-08T21:45:49.231Z,99862.69
2022-11-08T21:48:53.883Z,99856.00
2022-11-08T21:51:55.617Z,99851.63
2022-11-08T21:54:58.753Z,99869.88
2022-11-08T21:58:01.607Z,99862.88
2022-11-08T22:01:06.451Z,99862.06
2022-11-08T22:04:08.568Z,99866.00
2022-11-08T22:07:10.668Z,99866.28
2022-11-08T22:10:13.670Z,99846.03
2022-11-08T22:13:15.327Z,99850.41
2022-11-08T22:16:16.961Z,99851.97
2022-11-08T22:19:18.673Z,99841.31
2022-11-08T22:22:20.480Z,99834.94
2022-11-08T22:25:23.473Z,99844.34
2022-11-08T22:28:25.177Z,99851.13
2022-11-08T22:31:26.956Z,99854.00
2022-11-08T22:34:28.562Z,99853.94
2022-11-08T22:37:30.209Z,99862.66
2022-11-08T22:40:33.174Z,99843.59
2022-11-08T22:43:35.764Z,99857.88
2022-11-08T22:46:37.388Z,99862.47
2022-11-08T22:49:44.795Z,99867.66
2022-11-08T22:52:46.698Z,99867.41
2022-11-08T22:55:49.672Z,99860.81
2022-11-08T22:58:51.357Z,99861.69
2022-11-08T23:01:53.075Z,99857.91
2022-11-08T23:04:54.704Z,99846.41
2022-11-08T23:07:56.383Z,99848.81
2022-11-08T23:11:18.980Z,99837.19
2022-11-08T23:14:39.909Z,99827.63
2022-11-08T23:17:41.528Z,99833.63
2022-11-08T23:21:01.857Z,99829.13
2022-11-08T23:24:21.748Z,99824.19
2022-11-08T23:27:44.424Z,99835.78
2022-11-08T23:31:04.799Z,99838.75
2022-11-08T23:34:06.441Z,99843.50
2022-11-08T23:37:08.310Z,99827.25
2022-11-08T23:40:30.864Z,99824.19
2022-11-08T23:43:52.409Z,99819.47
2022-11-08T23:46:56.160Z,99817.28
2022-11-08T23:49:57.769Z,99815.72
2022-11-08T23:52:59.409Z,99811.81
2022-11-08T23:56:01.143Z,99817.63
2022-11-08T23:59:04.292Z,99814.72
